sensor_id;sensor_type;location;lat;lon;timestamp;P1;durP1;ratioP1;P2;durP2;ratioP2
57309;SDS011;43153;50.984;18.204;2023-02-13T00:00:42;39.80;;;17.20;;
57309;SDS011;43153;50.984;18.204;2023-02-13T00:03:08;47.10;;;16.00;;
57309;SDS011;43153;50.984;18.204;2023-02-13T00:05:35;46.10;;;17.30;;
57309;SDS011;43153;50.984;18.204;2023-02-13T00:08:01;45.30;;;15.40;;
57309;SDS011;43153;50.984;18.204;2023-02-13T00:10:26;40.20;;;15.60;;
57309;SDS011;43153;50.984;18.204;2023-02-13T00:12:52;39.80;;;15.90;;
57309;SDS011;43153;50.984;18.204;2023-02-13T00:15:19;35.80;;;14.60;;
57309;SDS011;43153;50.984;18.204;2023-02-13T00:17:46;42.80;;;15.20;;
57309;SDS011;43153;50.984;18.204;2023-02-13T00:20:12;51.70;;;17.00;;
57309;SDS011;43153;50.984;18.204;2023-02-13T00:22:42;49.30;;;16.20;;
57309;SDS011;43153;50.984;18.204;2023-02-13T00:25:07;43.60;;;17.70;;
57309;SDS011;43153;50.984;18.204;2023-02-13T00:27:33;46.70;;;16.50;;
57309;SDS011;43153;50.984;18.204;2023-02-13T00:30:02;52.40;;;17.60;;
57309;SDS011;43153;50.984;18.204;2023-02-13T00:32:30;43.00;;;14.90;;
57309;SDS011;43153;50.984;18.204;2023-02-13T00:34:59;43.70;;;16.20;;
57309;SDS011;43153;50.984;18.204;2023-02-13T00:37:25;41.20;;;15.60;;
57309;SDS011;43153;50.984;18.204;2023-02-13T00:39:55;39.00;;;15.00;;
57309;SDS011;43153;50.984;18.204;2023-02-13T00:42:20;43.50;;;17.20;;
57309;SDS011;43153;50.984;18.204;2023-02-13T00:44:51;46.90;;;16.80;;
57309;SDS011;43153;50.984;18.204;2023-02-13T00:47:20;39.20;;;14.30;;
57309;SDS011;43153;50.984;18.204;2023-02-13T00:49:50;35.10;;;14.60;;
57309;SDS011;43153;50.984;18.204;2023-02-13T00:52:16;48.30;;;16.30;;
57309;SDS011;43153;50.984;18.204;2023-02-13T00:54:43;38.80;;;13.50;;
57309;SDS011;43153;50.984;18.204;2023-02-13T00:57:11;43.60;;;15.10;;
57309;SDS011;43153;50.984;18.204;2023-02-13T00:59:37;45.70;;;15.80;;
57309;SDS011;43153;50.984;18.204;2023-02-13T01:02:03;38.00;;;13.60;;
57309;SDS011;43153;50.984;18.204;2023-02-13T01:04:29;37.10;;;14.80;;
57309;SDS011;43153;50.984;18.204;2023-02-13T01:06:55;43.60;;;14.60;;
57309;SDS011;43153;50.984;18.204;2023-02-13T01:09:22;45.90;;;15.50;;
57309;SDS011;43153;50.984;18.204;2023-02-13T01:11:49;38.90;;;14.90;;
57309;SDS011;43153;50.984;18.204;2023-02-13T01:14:15;39.60;;;14.30;;
57309;SDS011;43153;50.984;18.204;2023-02-13T01:16:41;37.20;;;13.40;;
57309;SDS011;43153;50.984;18.204;2023-02-13T01:19:07;42.40;;;13.20;;
57309;SDS011;43153;50.984;18.204;2023-02-13T01:21:39;44.60;;;14.20;;
57309;SDS011;43153;50.984;18.204;2023-02-13T01:24:16;46.30;;;16.20;;
57309;SDS011;43153;50.984;18.204;2023-02-13T01:26:45;43.50;;;15.70;;
57309;SDS011;43153;50.984;18.204;2023-02-13T01:29:23;53.50;;;17.20;;
57309;SDS011;43153;50.984;18.204;2023-02-13T01:31:50;40.50;;;14.50;;
57309;SDS011;43153;50.984;18.204;2023-02-13T01:34:17;48.40;;;15.70;;
57309;SDS011;43153;50.984;18.204;2023-02-13T01:36:43;45.60;;;15.20;;
57309;SDS011;43153;50.984;18.204;2023-02-13T01:39:11;39.30;;;13.80;;
57309;SDS011;43153;50.984;18.204;2023-02-13T01:41:37;41.90;;;14.30;;
57309;SDS011;43153;50.984;18.204;2023-02-13T01:44:43;39.50;;;15.00;;
57309;SDS011;43153;50.984;18.204;2023-02-13T01:47:08;36.90;;;13.30;;
57309;SDS011;43153;50.984;18.204;2023-02-13T01:49:36;39.60;;;14.30;;
57309;SDS011;43153;50.984;18.204;2023-02-13T01:52:02;40.30;;;14.20;;
57309;SDS011;43153;50.984;18.204;2023-02-13T01:54:30;38.80;;;14.50;;
57309;SDS011;43153;50.984;18.204;2023-02-13T01:56:58;39.80;;;14.20;;
57309;SDS011;43153;50.984;18.204;2023-02-13T01:59:33;33.80;;;11.80;;
57309;SDS011;43153;50.984;18.204;2023-02-13T02:02:08;41.90;;;14.20;;
57309;SDS011;43153;50.984;18.204;2023-02-13T02:04:34;35.90;;;14.50;;
57309;SDS011;43153;50.984;18.204;2023-02-13T02:07:36;41.70;;;13.30;;
57309;SDS011;43153;50.984;18.204;2023-02-13T02:09:57;36.40;;;14.20;;
57309;SDS011;43153;50.984;18.204;2023-02-13T02:15:01;43.90;;;14.20;;
57309;SDS011;43153;50.984;18.204;2023-02-13T02:17:29;40.00;;;14.80;;
57309;SDS011;43153;50.984;18.204;2023-02-13T03:03:41;44.80;;;15.50;;
57309;SDS011;43153;50.984;18.204;2023-02-13T03:06:33;40.70;;;16.20;;
57309;SDS011;43153;50.984;18.204;2023-02-13T03:09:16;42.90;;;18.50;;
57309;SDS011;43153;50.984;18.204;2023-02-13T03:12:04;42.60;;;17.40;;
57309;SDS011;43153;50.984;18.204;2023-02-13T03:14:49;45.70;;;17.70;;
57309;SDS011;43153;50.984;18.204;2023-02-13T03:17:18;42.40;;;16.80;;
57309;SDS011;43153;50.984;18.204;2023-02-13T03:28:17;33.30;;;13.70;;
57309;SDS011;43153;50.984;18.204;2023-02-13T03:45:14;35.30;;;14.70;;
57309;SDS011;43153;50.984;18.204;2023-02-13T03:48:02;37.30;;;17.30;;
57309;SDS011;43153;50.984;18.204;2023-02-13T03:50:35;36.60;;;14.00;;
57309;SDS011;43153;50.984;18.204;2023-02-13T03:53:10;31.10;;;13.10;;
57309;SDS011;43153;50.984;18.204;2023-02-13T03:55:39;33.70;;;13.30;;
57309;SDS011;43153;50.984;18.204;2023-02-13T03:58:40;27.30;;;11.40;;
57309;SDS011;43153;50.984;18.204;2023-02-13T04:01:33;28.60;;;11.50;;
57309;SDS011;43153;50.984;18.204;2023-02-13T04:04:04;30.70;;;12.20;;
57309;SDS011;43153;50.984;18.204;2023-02-13T04:06:51;33.10;;;13.10;;
57309;SDS011;43153;50.984;18.204;2023-02-13T04:09:18;36.10;;;12.60;;
57309;SDS011;43153;50.984;18.204;2023-02-13T04:14:40;28.50;;;11.20;;
57309;SDS011;43153;50.984;18.204;2023-02-13T04:17:12;33.80;;;12.40;;
57309;SDS011;43153;50.984;18.204;2023-02-13T04:19:54;31.40;;;13.20;;
57309;SDS011;43153;50.984;18.204;2023-02-13T04:22:20;34.60;;;14.80;;
57309;SDS011;43153;50.984;18.204;2023-02-13T04:24:46;32.50;;;14.90;;
57309;SDS011;43153;50.984;18.204;2023-02-13T04:27:14;35.80;;;15.60;;
57309;SDS011;43153;50.984;18.204;2023-02-13T04:29:41;34.70;;;13.50;;
57309;SDS011;43153;50.984;18.204;2023-02-13T04:32:08;32.30;;;14.10;;
57309;SDS011;43153;50.984;18.204;2023-02-13T04:34:36;33.40;;;12.40;;
57309;SDS011;43153;50.984;18.204;2023-02-13T04:37:03;29.20;;;12.60;;
57309;SDS011;43153;50.984;18.204;2023-02-13T04:39:31;30.20;;;12.60;;
57309;SDS011;43153;50.984;18.204;2023-02-13T04:41:57;31.30;;;13.10;;
57309;SDS011;43153;50.984;18.204;2023-02-13T04:44:23;30.20;;;13.40;;
57309;SDS011;43153;50.984;18.204;2023-02-13T04:46:52;31.00;;;11.50;;
57309;SDS011;43153;50.984;18.204;2023-02-13T04:49:18;28.70;;;11.40;;
57309;SDS011;43153;50.984;18.204;2023-02-13T04:51:44;32.50;;;13.20;;
57309;SDS011;43153;50.984;18.204;2023-02-13T04:54:10;33.10;;;13.30;;
57309;SDS011;43153;50.984;18.204;2023-02-13T04:56:36;31.30;;;14.30;;
57309;SDS011;43153;50.984;18.204;2023-02-13T04:59:03;34.10;;;12.90;;
57309;SDS011;43153;50.984;18.204;2023-02-13T05:01:30;30.60;;;13.90;;
57309;SDS011;43153;50.984;18.204;2023-02-13T05:03:56;29.60;;;10.70;;
57309;SDS011;43153;50.984;18.204;2023-02-13T05:06:27;28.20;;;13.00;;
57309;SDS011;43153;50.984;18.204;2023-02-13T05:08:53;29.30;;;11.50;;
57309;SDS011;43153;50.984;18.204;2023-02-13T05:11:19;23.90;;;11.00;;
57309;SDS011;43153;50.984;18.204;2023-02-13T05:13:46;28.30;;;11.70;;
57309;SDS011;43153;50.984;18.204;2023-02-13T05:16:12;31.20;;;12.80;;
57309;SDS011;43153;50.984;18.204;2023-02-13T05:18:38;28.60;;;13.60;;
57309;SDS011;43153;50.984;18.204;2023-02-13T05:21:06;30.50;;;13.40;;
57309;SDS011;43153;50.984;18.204;2023-02-13T05:23:53;27.70;;;11.20;;
57309;SDS011;43153;50.984;18.204;2023-02-13T05:26:19;31.90;;;13.30;;
57309;SDS011;43153;50.984;18.204;2023-02-13T05:28:45;35.70;;;13.60;;
57309;SDS011;43153;50.984;18.204;2023-02-13T05:31:30;32.90;;;12.60;;
57309;SDS011;43153;50.984;18.204;2023-02-13T05:33:56;31.70;;;12.50;;
57309;SDS011;43153;50.984;18.204;2023-02-13T05:36:22;27.90;;;13.40;;
57309;SDS011;43153;50.984;18.204;2023-02-13T05:38:48;36.30;;;14.10;;
57309;SDS011;43153;50.984;18.204;2023-02-13T05:41:14;34.90;;;16.40;;
57309;SDS011;43153;50.984;18.204;2023-02-13T05:43:44;38.00;;;19.20;;
57309;SDS011;43153;50.984;18.204;2023-02-13T05:46:11;36.90;;;16.50;;
57309;SDS011;43153;50.984;18.204;2023-02-13T05:48:44;37.60;;;15.30;;
57309;SDS011;43153;50.984;18.204;2023-02-13T05:51:11;29.60;;;13.50;;
57309;SDS011;43153;50.984;18.204;2023-02-13T05:53:38;28.90;;;13.20;;
57309;SDS011;43153;50.984;18.204;2023-02-13T05:56:07;31.70;;;12.60;;
57309;SDS011;43153;50.984;18.204;2023-02-13T05:58:50;29.90;;;11.10;;
57309;SDS011;43153;50.984;18.204;2023-02-13T06:01:20;26.80;;;9.80;;
57309;SDS011;43153;50.984;18.204;2023-02-13T06:03:52;26.40;;;9.30;;
57309;SDS011;43153;50.984;18.204;2023-02-13T06:06:19;26.10;;;9.90;;
57309;SDS011;43153;50.984;18.204;2023-02-13T06:08:51;27.40;;;11.00;;
57309;SDS011;43153;50.984;18.204;2023-02-13T06:11:19;24.70;;;10.00;;
57309;SDS011;43153;50.984;18.204;2023-02-13T06:13:45;28.00;;;10.50;;
57309;SDS011;43153;50.984;18.204;2023-02-13T06:16:11;24.40;;;10.10;;
57309;SDS011;43153;50.984;18.204;2023-02-13T06:18:40;29.10;;;11.30;;
57309;SDS011;43153;50.984;18.204;2023-02-13T06:21:07;28.00;;;12.10;;
57309;SDS011;43153;50.984;18.204;2023-02-13T06:23:35;25.30;;;11.10;;
57309;SDS011;43153;50.984;18.204;2023-02-13T06:26:38;29.00;;;12.20;;
57309;SDS011;43153;50.984;18.204;2023-02-13T06:29:04;29.50;;;12.30;;
57309;SDS011;43153;50.984;18.204;2023-02-13T06:31:57;30.70;;;11.80;;
57309;SDS011;43153;50.984;18.204;2023-02-13T06:34:28;27.30;;;12.70;;
57309;SDS011;43153;50.984;18.204;2023-02-13T06:37:00;28.80;;;11.70;;
57309;SDS011;43153;50.984;18.204;2023-02-13T06:39:30;25.90;;;11.10;;
57309;SDS011;43153;50.984;18.204;2023-02-13T06:41:56;25.70;;;10.80;;
57309;SDS011;43153;50.984;18.204;2023-02-13T06:44:22;31.00;;;11.70;;
57309;SDS011;43153;50.984;18.204;2023-02-13T06:46:48;30.80;;;11.70;;
57309;SDS011;43153;50.984;18.204;2023-02-13T06:49:21;30.50;;;13.30;;
57309;SDS011;43153;50.984;18.204;2023-02-13T06:51:50;31.40;;;13.10;;
57309;SDS011;43153;50.984;18.204;2023-02-13T06:54:21;30.50;;;13.10;;
57309;SDS011;43153;50.984;18.204;2023-02-13T06:56:49;29.50;;;11.80;;
57309;SDS011;43153;50.984;18.204;2023-02-13T06:59:17;27.80;;;13.40;;
57309;SDS011;43153;50.984;18.204;2023-02-13T07:01:44;28.30;;;13.10;;
57309;SDS011;43153;50.984;18.204;2023-02-13T07:04:15;27.30;;;10.80;;
57309;SDS011;43153;50.984;18.204;2023-02-13T07:06:45;28.50;;;13.50;;
57309;SDS011;43153;50.984;18.204;2023-02-13T07:09:11;23.20;;;11.20;;
57309;SDS011;43153;50.984;18.204;2023-02-13T07:11:40;25.30;;;11.60;;
57309;SDS011;43153;50.984;18.204;2023-02-13T07:14:09;27.80;;;11.60;;
57309;SDS011;43153;50.984;18.204;2023-02-13T07:19:10;36.00;;;14.70;;
57309;SDS011;43153;50.984;18.204;2023-02-13T07:21:36;30.30;;;14.50;;
57309;SDS011;43153;50.984;18.204;2023-02-13T07:24:34;25.50;;;10.70;;
57309;SDS011;43153;50.984;18.204;2023-02-13T07:27:04;27.90;;;12.50;;
57309;SDS011;43153;50.984;18.204;2023-02-13T07:29:32;25.10;;;12.40;;
57309;SDS011;43153;50.984;18.204;2023-02-13T07:32:06;32.30;;;13.00;;
57309;SDS011;43153;50.984;18.204;2023-02-13T07:34:34;24.30;;;11.70;;
57309;SDS011;43153;50.984;18.204;2023-02-13T07:37:04;27.80;;;12.40;;
57309;SDS011;43153;50.984;18.204;2023-02-13T07:39:31;25.00;;;11.80;;
57309;SDS011;43153;50.984;18.204;2023-02-13T07:41:57;23.70;;;10.40;;
57309;SDS011;43153;50.984;18.204;2023-02-13T07:44:23;24.40;;;11.00;;
57309;SDS011;43153;50.984;18.204;2023-02-13T07:46:49;25.40;;;10.40;;
57309;SDS011;43153;50.984;18.204;2023-02-13T07:49:16;22.50;;;9.90;;
57309;SDS011;43153;50.984;18.204;2023-02-13T07:52:00;20.90;;;8.60;;
57309;SDS011;43153;50.984;18.204;2023-02-13T07:54:30;21.20;;;8.00;;
57309;SDS011;43153;50.984;18.204;2023-02-13T07:57:00;19.00;;;7.40;;
57309;SDS011;43153;50.984;18.204;2023-02-13T07:59:27;19.50;;;8.00;;
57309;SDS011;43153;50.984;18.204;2023-02-13T08:01:57;18.00;;;8.60;;
57309;SDS011;43153;50.984;18.204;2023-02-13T08:04:23;22.20;;;10.70;;
57309;SDS011;43153;50.984;18.204;2023-02-13T08:07:01;21.30;;;9.50;;
57309;SDS011;43153;50.984;18.204;2023-02-13T08:09:36;25.60;;;9.80;;
57309;SDS011;43153;50.984;18.204;2023-02-13T08:12:25;17.70;;;6.50;;
57309;SDS011;43153;50.984;18.204;2023-02-13T08:14:52;15.50;;;6.80;;
57309;SDS011;43153;50.984;18.204;2023-02-13T08:17:18;13.50;;;6.10;;
57309;SDS011;43153;50.984;18.204;2023-02-13T08:19:52;14.60;;;5.80;;
57309;SDS011;43153;50.984;18.204;2023-02-13T08:22:25;15.50;;;6.00;;
57309;SDS011;43153;50.984;18.204;2023-02-13T08:24:51;16.00;;;6.50;;
57309;SDS011;43153;50.984;18.204;2023-02-13T08:27:17;12.00;;;4.40;;
57309;SDS011;43153;50.984;18.204;2023-02-13T08:29:57;12.80;;;4.80;;
57309;SDS011;43153;50.984;18.204;2023-02-13T08:32:50;16.10;;;6.40;;
57309;SDS011;43153;50.984;18.204;2023-02-13T08:35:16;17.70;;;6.70;;
57309;SDS011;43153;50.984;18.204;2023-02-13T08:37:42;16.00;;;4.80;;
57309;SDS011;43153;50.984;18.204;2023-02-13T08:40:09;17.30;;;6.20;;
57309;SDS011;43153;50.984;18.204;2023-02-13T08:42:37;16.40;;;6.20;;
57309;SDS011;43153;50.984;18.204;2023-02-13T08:45:04;15.60;;;5.80;;
57309;SDS011;43153;50.984;18.204;2023-02-13T08:47:31;15.90;;;5.90;;
57309;SDS011;43153;50.984;18.204;2023-02-13T08:50:00;14.70;;;5.90;;
57309;SDS011;43153;50.984;18.204;2023-02-13T08:52:27;17.40;;;6.90;;
57309;SDS011;43153;50.984;18.204;2023-02-13T09:32:22;20.70;;;7.90;;
57309;SDS011;43153;50.984;18.204;2023-02-13T09:34:50;19.70;;;9.20;;
57309;SDS011;43153;50.984;18.204;2023-02-13T09:37:16;19.00;;;8.20;;
57309;SDS011;43153;50.984;18.204;2023-02-13T09:39:48;21.50;;;8.40;;
57309;SDS011;43153;50.984;18.204;2023-02-13T09:42:20;23.20;;;8.90;;
57309;SDS011;43153;50.984;18.204;2023-02-13T09:44:53;23.80;;;9.20;;
57309;SDS011;43153;50.984;18.204;2023-02-13T09:47:27;20.20;;;8.30;;
57309;SDS011;43153;50.984;18.204;2023-02-13T09:49:59;21.00;;;8.40;;
57309;SDS011;43153;50.984;18.204;2023-02-13T09:52:33;23.80;;;9.80;;
57309;SDS011;43153;50.984;18.204;2023-02-13T09:55:15;21.50;;;8.90;;
57309;SDS011;43153;50.984;18.204;2023-02-13T09:58:35;22.80;;;7.70;;
57309;SDS011;43153;50.984;18.204;2023-02-13T10:01:14;22.30;;;8.50;;
57309;SDS011;43153;50.984;18.204;2023-02-13T10:06:25;20.50;;;7.50;;
57309;SDS011;43153;50.984;18.204;2023-02-13T10:09:12;18.50;;;7.80;;
57309;SDS011;43153;50.984;18.204;2023-02-13T10:17:55;15.80;;;5.60;;
57309;SDS011;43153;50.984;18.204;2023-02-13T10:23:27;16.40;;;6.10;;
57309;SDS011;43153;50.984;18.204;2023-02-13T10:26:01;13.90;;;5.30;;
57309;SDS011;43153;50.984;18.204;2023-02-13T10:28:41;14.60;;;5.50;;
57309;SDS011;43153;50.984;18.204;2023-02-13T10:31:18;13.60;;;5.90;;
57309;SDS011;43153;50.984;18.204;2023-02-13T10:33:51;16.40;;;6.20;;
57309;SDS011;43153;50.984;18.204;2023-02-13T10:36:28;14.70;;;5.10;;
57309;SDS011;43153;50.984;18.204;2023-02-13T10:39:21;16.40;;;6.70;;
57309;SDS011;43153;50.984;18.204;2023-02-13T10:44:53;20.00;;;8.30;;
57309;SDS011;43153;50.984;18.204;2023-02-13T10:47:26;19.60;;;8.20;;
57309;SDS011;43153;50.984;18.204;2023-02-13T10:52:50;16.40;;;7.30;;
57309;SDS011;43153;50.984;18.204;2023-02-13T11:02:55;13.80;;;6.00;;
57309;SDS011;43153;50.984;18.204;2023-02-13T11:05:34;13.80;;;4.70;;
57309;SDS011;43153;50.984;18.204;2023-02-13T11:11:01;14.10;;;5.80;;
57309;SDS011;43153;50.984;18.204;2023-02-13T11:13:30;11.40;;;4.40;;
57309;SDS011;43153;50.984;18.204;2023-02-13T11:16:16;10.10;;;4.00;;
57309;SDS011;43153;50.984;18.204;2023-02-13T11:18:47;9.70;;;3.50;;
57309;SDS011;43153;50.984;18.204;2023-02-13T11:21:21;9.30;;;3.30;;
57309;SDS011;43153;50.984;18.204;2023-02-13T11:23:49;10.40;;;3.10;;
57309;SDS011;43153;50.984;18.204;2023-02-13T11:26:23;6.50;;;2.80;;
57309;SDS011;43153;50.984;18.204;2023-02-13T11:28:55;10.00;;;3.30;;
57309;SDS011;43153;50.984;18.204;2023-02-13T11:31:31;9.40;;;3.20;;
57309;SDS011;43153;50.984;18.204;2023-02-13T11:34:22;7.40;;;2.70;;
57309;SDS011;43153;50.984;18.204;2023-02-13T11:37:14;8.20;;;2.70;;
57309;SDS011;43153;50.984;18.204;2023-02-13T11:39:57;9.00;;;3.50;;
57309;SDS011;43153;50.984;18.204;2023-02-13T11:42:34;10.50;;;3.30;;
57309;SDS011;43153;50.984;18.204;2023-02-13T11:47:40;8.80;;;2.60;;
57309;SDS011;43153;50.984;18.204;2023-02-13T11:53:07;8.30;;;3.10;;
57309;SDS011;43153;50.984;18.204;2023-02-13T11:55:44;8.30;;;3.00;;
57309;SDS011;43153;50.984;18.204;2023-02-13T12:00:41;6.80;;;2.80;;
57309;SDS011;43153;50.984;18.204;2023-02-13T12:08:37;7.50;;;2.80;;
57309;SDS011;43153;50.984;18.204;2023-02-13T12:11:30;8.10;;;2.50;;
57309;SDS011;43153;50.984;18.204;2023-02-13T12:14:04;7.50;;;2.90;;
57309;SDS011;43153;50.984;18.204;2023-02-13T12:16:34;8.00;;;3.00;;
57309;SDS011;43153;50.984;18.204;2023-02-13T12:19:13;8.80;;;3.30;;
57309;SDS011;43153;50.984;18.204;2023-02-13T12:27:07;9.50;;;4.40;;
57309;SDS011;43153;50.984;18.204;2023-02-13T12:29:56;9.10;;;3.10;;
57309;SDS011;43153;50.984;18.204;2023-02-13T12:41:18;8.80;;;3.30;;
57309;SDS011;43153;50.984;18.204;2023-02-13T12:50:04;10.00;;;3.10;;
57309;SDS011;43153;50.984;18.204;2023-02-13T12:52:43;9.50;;;3.90;;
57309;SDS011;43153;50.984;18.204;2023-02-13T12:55:45;9.30;;;2.90;;
57309;SDS011;43153;50.984;18.204;2023-02-13T13:01:44;8.80;;;3.30;;
57309;SDS011;43153;50.984;18.204;2023-02-13T13:04:44;11.30;;;3.80;;
57309;SDS011;43153;50.984;18.204;2023-02-13T13:19:02;8.70;;;3.30;;
57309;SDS011;43153;50.984;18.204;2023-02-13T13:27:26;9.40;;;3.00;;
57309;SDS011;43153;50.984;18.204;2023-02-13T13:30:12;10.10;;;3.60;;
57309;SDS011;43153;50.984;18.204;2023-02-13T13:32:56;9.80;;;3.70;;
57309;SDS011;43153;50.984;18.204;2023-02-13T13:35:31;7.90;;;3.10;;
57309;SDS011;43153;50.984;18.204;2023-02-13T13:46:07;6.10;;;2.00;;
57309;SDS011;43153;50.984;18.204;2023-02-13T13:51:18;8.30;;;2.10;;
57309;SDS011;43153;50.984;18.204;2023-02-13T13:56:26;7.00;;;2.20;;
57309;SDS011;43153;50.984;18.204;2023-02-13T13:59:19;6.00;;;2.50;;
57309;SDS011;43153;50.984;18.204;2023-02-13T14:07:33;7.80;;;2.20;;
57309;SDS011;43153;50.984;18.204;2023-02-13T14:17:58;6.90;;;2.20;;
57309;SDS011;43153;50.984;18.204;2023-02-13T14:20:33;6.60;;;2.10;;
57309;SDS011;43153;50.984;18.204;2023-02-13T14:23:32;10.20;;;3.00;;
57309;SDS011;43153;50.984;18.204;2023-02-13T14:36:45;9.10;;;3.70;;
57309;SDS011;43153;50.984;18.204;2023-02-13T14:42:36;14.30;;;5.80;;
57309;SDS011;43153;50.984;18.204;2023-02-13T14:45:04;11.70;;;4.90;;
57309;SDS011;43153;50.984;18.204;2023-02-13T14:47:50;14.30;;;6.70;;
57309;SDS011;43153;50.984;18.204;2023-02-13T14:50:24;15.40;;;6.30;;
57309;SDS011;43153;50.984;18.204;2023-02-13T14:52:53;13.70;;;5.10;;
57309;SDS011;43153;50.984;18.204;2023-02-13T14:55:41;11.80;;;5.20;;
57309;SDS011;43153;50.984;18.204;2023-02-13T14:58:31;12.00;;;4.70;;
57309;SDS011;43153;50.984;18.204;2023-02-13T15:01:22;9.20;;;4.00;;
57309;SDS011;43153;50.984;18.204;2023-02-13T15:04:04;11.20;;;3.60;;
57309;SDS011;43153;50.984;18.204;2023-02-13T15:06:37;11.30;;;4.40;;
57309;SDS011;43153;50.984;18.204;2023-02-13T15:09:05;12.30;;;3.90;;
57309;SDS011;43153;50.984;18.204;2023-02-13T15:11:47;9.50;;;3.60;;
57309;SDS011;43153;50.984;18.204;2023-02-13T15:17:07;14.30;;;4.80;;
57309;SDS011;43153;50.984;18.204;2023-02-13T15:19:42;11.90;;;4.70;;
57309;SDS011;43153;50.984;18.204;2023-02-13T16:02:05;14.10;;;5.20;;
57309;SDS011;43153;50.984;18.204;2023-02-13T16:04:57;12.80;;;5.20;;
57309;SDS011;43153;50.984;18.204;2023-02-13T16:07:45;12.00;;;4.80;;
57309;SDS011;43153;50.984;18.204;2023-02-13T16:13:02;13.30;;;5.00;;
57309;SDS011;43153;50.984;18.204;2023-02-13T16:15:36;13.10;;;5.10;;
57309;SDS011;43153;50.984;18.204;2023-02-13T16:18:03;12.20;;;4.90;;
57309;SDS011;43153;50.984;18.204;2023-02-13T16:20:44;12.70;;;5.10;;
57309;SDS011;43153;50.984;18.204;2023-02-13T16:23:16;16.10;;;5.10;;
57309;SDS011;43153;50.984;18.204;2023-02-13T16:25:49;9.80;;;4.30;;
57309;SDS011;43153;50.984;18.204;2023-02-13T16:28:25;13.20;;;5.20;;
57309;SDS011;43153;50.984;18.204;2023-02-13T16:31:03;15.30;;;5.40;;
57309;SDS011;43153;50.984;18.204;2023-02-13T16:36:00;13.30;;;5.00;;
57309;SDS011;43153;50.984;18.204;2023-02-13T16:38:49;12.00;;;4.80;;
57309;SDS011;43153;50.984;18.204;2023-02-13T16:43:51;10.40;;;4.50;;
57309;SDS011;43153;50.984;18.204;2023-02-13T16:46:30;12.40;;;5.00;;
57309;SDS011;43153;50.984;18.204;2023-02-13T16:49:13;11.80;;;5.00;;
57309;SDS011;43153;50.984;18.204;2023-02-13T16:51:51;12.90;;;5.10;;
57309;SDS011;43153;50.984;18.204;2023-02-13T16:54:26;12.60;;;5.30;;
57309;SDS011;43153;50.984;18.204;2023-02-13T16:59:55;12.60;;;4.60;;
57309;SDS011;43153;50.984;18.204;2023-02-13T17:02:53;12.70;;;5.20;;
57309;SDS011;43153;50.984;18.204;2023-02-13T17:05:33;15.30;;;5.80;;
57309;SDS011;43153;50.984;18.204;2023-02-13T17:08:13;14.10;;;5.00;;
57309;SDS011;43153;50.984;18.204;2023-02-13T17:11:00;11.60;;;4.60;;
57309;SDS011;43153;50.984;18.204;2023-02-13T17:13:28;9.90;;;4.20;;
57309;SDS011;43153;50.984;18.204;2023-02-13T17:16:08;11.90;;;4.80;;
57309;SDS011;43153;50.984;18.204;2023-02-13T17:18:38;11.80;;;4.60;;
57309;SDS011;43153;50.984;18.204;2023-02-13T17:21:20;11.40;;;4.50;;
57309;SDS011;43153;50.984;18.204;2023-02-13T17:23:52;12.00;;;4.70;;
57309;SDS011;43153;50.984;18.204;2023-02-13T17:26:32;13.80;;;5.20;;
57309;SDS011;43153;50.984;18.204;2023-02-13T17:28:58;12.50;;;5.00;;
57309;SDS011;43153;50.984;18.204;2023-02-13T17:31:28;13.50;;;4.40;;
57309;SDS011;43153;50.984;18.204;2023-02-13T17:33:55;15.70;;;6.20;;
57309;SDS011;43153;50.984;18.204;2023-02-13T17:36:21;13.70;;;5.70;;
57309;SDS011;43153;50.984;18.204;2023-02-13T17:38:53;13.70;;;5.80;;
57309;SDS011;43153;50.984;18.204;2023-02-13T17:41:24;13.90;;;5.10;;
57309;SDS011;43153;50.984;18.204;2023-02-13T17:43:55;18.50;;;6.50;;
57309;SDS011;43153;50.984;18.204;2023-02-13T17:46:26;13.30;;;5.60;;
57309;SDS011;43153;50.984;18.204;2023-02-13T17:48:54;13.70;;;5.20;;
57309;SDS011;43153;50.984;18.204;2023-02-13T17:51:30;13.20;;;5.50;;
57309;SDS011;43153;50.984;18.204;2023-02-13T17:54:26;14.00;;;4.60;;
57309;SDS011;43153;50.984;18.204;2023-02-13T17:56:52;11.40;;;4.00;;
57309;SDS011;43153;50.984;18.204;2023-02-13T17:59:29;12.30;;;4.30;;
57309;SDS011;43153;50.984;18.204;2023-02-13T18:02:05;12.10;;;4.50;;
57309;SDS011;43153;50.984;18.204;2023-02-13T18:04:39;13.60;;;5.30;;
57309;SDS011;43153;50.984;18.204;2023-02-13T18:07:05;12.20;;;4.90;;
57309;SDS011;43153;50.984;18.204;2023-02-13T18:09:38;12.20;;;4.20;;
57309;SDS011;43153;50.984;18.204;2023-02-13T18:12:06;12.00;;;4.60;;
57309;SDS011;43153;50.984;18.204;2023-02-13T18:14:39;11.30;;;4.80;;
57309;SDS011;43153;50.984;18.204;2023-02-13T18:17:12;12.90;;;5.20;;
57309;SDS011;43153;50.984;18.204;2023-02-13T18:19:41;14.10;;;5.40;;
57309;SDS011;43153;50.984;18.204;2023-02-13T18:22:16;13.10;;;5.30;;
57309;SDS011;43153;50.984;18.204;2023-02-13T18:24:47;12.60;;;5.10;;
57309;SDS011;43153;50.984;18.204;2023-02-13T18:27:15;13.70;;;5.10;;
57309;SDS011;43153;50.984;18.204;2023-02-13T18:29:44;13.10;;;5.30;;
57309;SDS011;43153;50.984;18.204;2023-02-13T18:32:13;16.00;;;6.10;;
57309;SDS011;43153;50.984;18.204;2023-02-13T18:34:43;15.10;;;7.10;;
57309;SDS011;43153;50.984;18.204;2023-02-13T18:37:16;13.70;;;6.10;;
57309;SDS011;43153;50.984;18.204;2023-02-13T18:42:19;13.50;;;5.30;;
57309;SDS011;43153;50.984;18.204;2023-02-13T18:44:58;14.40;;;5.70;;
57309;SDS011;43153;50.984;18.204;2023-02-13T18:47:38;16.50;;;6.90;;
57309;SDS011;43153;50.984;18.204;2023-02-13T18:50:25;13.10;;;5.60;;
57309;SDS011;43153;50.984;18.204;2023-02-13T18:52:51;15.00;;;5.40;;
57309;SDS011;43153;50.984;18.204;2023-02-13T18:55:22;13.40;;;5.80;;
57309;SDS011;43153;50.984;18.204;2023-02-13T18:57:53;17.10;;;7.10;;
57309;SDS011;43153;50.984;18.204;2023-02-13T19:00:22;15.80;;;7.10;;
57309;SDS011;43153;50.984;18.204;2023-02-13T19:02:51;15.70;;;6.40;;
57309;SDS011;43153;50.984;18.204;2023-02-13T19:05:18;15.00;;;6.20;;
57309;SDS011;43153;50.984;18.204;2023-02-13T19:07:44;14.60;;;6.50;;
57309;SDS011;43153;50.984;18.204;2023-02-13T19:10:12;15.30;;;6.50;;
57309;SDS011;43153;50.984;18.204;2023-02-13T19:12:41;16.50;;;6.60;;
57309;SDS011;43153;50.984;18.204;2023-02-13T19:15:10;18.00;;;7.80;;
57309;SDS011;43153;50.984;18.204;2023-02-13T19:17:36;14.90;;;6.70;;
57309;SDS011;43153;50.984;18.204;2023-02-13T19:20:03;16.30;;;7.20;;
57309;SDS011;43153;50.984;18.204;2023-02-13T19:22:31;16.50;;;6.90;;
57309;SDS011;43153;50.984;18.204;2023-02-13T19:25:00;19.50;;;7.60;;
57309;SDS011;43153;50.984;18.204;2023-02-13T19:27:26;19.20;;;7.90;;
57309;SDS011;43153;50.984;18.204;2023-02-13T19:29:55;21.80;;;9.60;;
57309;SDS011;43153;50.984;18.204;2023-02-13T19:32:27;24.40;;;8.50;;
57309;SDS011;43153;50.984;18.204;2023-02-13T19:34:57;18.60;;;8.60;;
57309;SDS011;43153;50.984;18.204;2023-02-13T19:37:30;20.20;;;9.00;;
57309;SDS011;43153;50.984;18.204;2023-02-13T19:40:04;19.50;;;9.10;;
57309;SDS011;43153;50.984;18.204;2023-02-13T19:42:41;21.60;;;8.50;;